Time;durP1;ratioP1;P1;durP2;ratioP2;P2;SDS_P1;SDS_P2;PMS_P1;PMS_P2;Temp;Humidity;BMP_temperature;BMP_pressure;BME280_temperature;BME280_humidity;BME280_pressure;Samples;Min_cycle;Max_cycle;Signal;HPM_P1;HPM_P2
2022/09/08 00:00:41;;;;;;;3.67;1.70;;;;;;;;;;5036453;28;93851;-45
2022/09/08 00:03:10;;;;;;;4.00;2.60;;;;;;;;;;5040945;27;92037;-45
2022/09/08 00:05:42;;;;;;;3.70;1.87;;;;;;;;;;5038851;28;91192;-45
2022/09/08 00:08:10;;;;;;;4.17;1.43;;;;;;;;;;5037927;28;94230;-45
2022/09/08 00:10:38;;;;;;;2.60;2.10;;;;;;;;;;5038845;28;93948;-45
2022/09/08 00:13:07;;;;;;;2.50;1.63;;;;;;;;;;5036523;27;94633;-45
2022/09/08 00:15:36;;;;;;;2.67;1.40;;;;;;;;;;5058580;27;92110;-45
2022/09/08 00:18:05;;;;;;;3.53;1.73;;;;;;;;;;5033129;27;94217;-46
2022/09/08 00:20:33;;;;;;;2.67;1.60;;;;;;;;;;5018691;28;93873;-45
2022/09/08 00:23:02;;;;;;;2.23;1.77;;;;;;;;;;5026103;28;92114;-45
2022/09/08 00:25:31;;;;;;;2.63;1.73;;;;;;;;;;5038140;28;92068;-45
2022/09/08 00:27:59;;;;;;;4.80;1.80;;;;;;;;;;5038101;28;94269;-45
2022/09/08 00:30:27;;;;;;;2.00;1.50;;;;;;;;;;5027205;28;92916;-45
2022/09/08 00:32:56;;;;;;;3.03;1.50;;;;;;;;;;5018783;28;92090;-45
2022/09/08 00:35:24;;;;;;;1.63;1.53;;;;;;;;;;5018602;28;92178;-45
2022/09/08 00:37:52;;;;;;;5.83;1.60;;;;;;;;;;5017399;28;95163;-45
2022/09/08 00:40:22;;;;;;;2.30;1.67;;;;;;;;;;5021037;27;94690;-45
2022/09/08 00:42:58;;;;;;;3.07;1.77;;;;;;;;;;5038380;28;91973;-45
2022/09/08 00:45:27;;;;;;;5.00;1.67;;;;;;;;;;5037771;28;92088;-45
2022/09/08 00:47:57;;;;;;;1.50;1.17;;;;;;;;;;5036966;28;94233;-45
2022/09/08 00:50:26;;;;;;;3.47;1.20;;;;;;;;;;5037510;28;93807;-45
2022/09/08 00:53:00;;;;;;;2.07;1.40;;;;;;;;;;5038706;28;91930;-45
2022/09/08 00:55:30;;;;;;;3.90;1.50;;;;;;;;;;5039942;27;91300;-45
2022/09/08 00:57:58;;;;;;;3.07;1.20;;;;;;;;;;5046237;27;94034;-45
2022/09/08 01:00:26;;;;;;;2.47;0.93;;;;;;;;;;5044398;27;93452;-45
2022/09/08 01:02:55;;;;;;;4.27;1.40;;;;;;;;;;5042035;27;93618;-45
2022/09/08 01:05:23;;;;;;;4.10;1.40;;;;;;;;;;5045858;27;92153;-45
2022/09/08 01:13:35;;;;;;;2.77;1.50;;;;;;;;;;5049595;27;92523;-44
2022/09/08 01:16:03;;;;;;;3.40;1.90;;;;;;;;;;5045165;27;92943;-45
2022/09/08 01:18:32;;;;;;;2.33;1.53;;;;;;;;;;5039488;27;94230;-45
2022/09/08 01:21:01;;;;;;;3.73;2.07;;;;;;;;;;5046294;27;93880;-45
2022/09/08 01:23:34;;;;;;;2.80;2.40;;;;;;;;;;5037658;27;92438;-45
2022/09/08 01:26:17;;;;;;;4.80;2.17;;;;;;;;;;5031164;27;92249;-45
2022/09/08 01:28:48;;;;;;;3.83;2.50;;;;;;;;;;5030134;27;95075;-45
2022/09/08 01:31:16;;;;;;;5.23;2.90;;;;;;;;;;5033633;27;93730;-45
2022/09/08 01:33:44;;;;;;;3.97;2.43;;;;;;;;;;5031886;27;92189;-45
2022/09/08 01:36:13;;;;;;;2.83;2.00;;;;;;;;;;5030513;27;93569;-45
2022/09/08 01:38:41;;;;;;;5.60;2.27;;;;;;;;;;5034624;27;93524;-44
2022/09/08 01:41:10;;;;;;;5.17;2.33;;;;;;;;;;5030888;27;93776;-45
2022/09/08 01:43:38;;;;;;;4.97;1.90;;;;;;;;;;5035376;27;92675;-45
2022/09/08 01:46:08;;;;;;;3.57;2.20;;;;;;;;;;5033488;27;93701;-45
2022/09/08 01:48:36;;;;;;;5.50;2.57;;;;;;;;;;5031100;27;94172;-44
2022/09/08 01:51:05;;;;;;;2.80;1.67;;;;;;;;;;5031978;28;93841;-45
2022/09/08 01:53:33;;;;;;;4.40;2.20;;;;;;;;;;5035326;27;94476;-45
2022/09/08 01:56:02;;;;;;;3.37;1.90;;;;;;;;;;5032955;28;93361;-45
2022/09/08 01:58:30;;;;;;;3.33;2.13;;;;;;;;;;5035671;28;95749;-44
2022/09/08 02:00:59;;;;;;;2.37;1.67;;;;;;;;;;5040653;28;94193;-45
2022/09/08 02:03:28;;;;;;;5.17;2.50;;;;;;;;;;5040526;28;92896;-44
2022/09/08 02:05:59;;;;;;;3.07;2.00;;;;;;;;;;5040038;28;93568;-44
2022/09/08 02:08:27;;;;;;;3.77;2.17;;;;;;;;;;5040590;28;94036;-45
2022/09/08 02:10:56;;;;;;;4.27;2.07;;;;;;;;;;5039549;28;92587;-44
2022/09/08 02:13:24;;;;;;;4.10;2.50;;;;;;;;;;5040615;28;91878;-44
2022/09/08 02:15:58;;;;;;;3.73;2.47;;;;;;;;;;5039738;28;92170;-45
2022/09/08 02:18:26;;;;;;;4.57;2.27;;;;;;;;;;5040020;28;95286;-45
2022/09/08 02:21:02;;;;;;;2.60;2.10;;;;;;;;;;5045287;27;93733;-45
2022/09/08 02:23:31;;;;;;;5.13;2.97;;;;;;;;;;5044210;27;92534;-45
2022/09/08 02:25:59;;;;;;;5.50;2.63;;;;;;;;;;5043041;27;92037;-45
2022/09/08 02:28:27;;;;;;;4.97;3.10;;;;;;;;;;5051455;27;93075;-45
2022/09/08 02:30:59;;;;;;;3.30;2.47;;;;;;;;;;5043397;27;93793;-45
2022/09/08 02:33:28;;;;;;;6.57;3.10;;;;;;;;;;5020896;28;92048;-45
2022/09/08 02:35:56;;;;;;;4.77;2.83;;;;;;;;;;5036906;28;92974;-45
2022/09/08 02:38:26;;;;;;;3.77;2.70;;;;;;;;;;5039973;27;94229;-45
2022/09/08 02:40:54;;;;;;;5.33;3.37;;;;;;;;;;5039354;28;92556;-45
2022/09/08 02:43:23;;;;;;;5.57;3.70;;;;;;;;;;5039708;28;92978;-45
2022/09/08 02:45:51;;;;;;;5.60;3.83;;;;;;;;;;5040115;28;92030;-45
2022/09/08 02:48:20;;;;;;;9.30;5.67;;;;;;;;;;5039712;28;94221;-45
2022/09/08 02:50:48;;;;;;;7.53;5.13;;;;;;;;;;5039253;28;93749;-45
2022/09/08 02:53:16;;;;;;;7.17;4.03;;;;;;;;;;5039445;28;92970;-45
2022/09/08 02:55:46;;;;;;;9.03;5.43;;;;;;;;;;5039678;28;91986;-45
2022/09/08 02:58:15;;;;;;;8.93;5.27;;;;;;;;;;5039822;28;93938;-45
2022/09/08 03:00:43;;;;;;;9.03;5.40;;;;;;;;;;5040539;28;93880;-45
2022/09/08 03:03:11;;;;;;;7.70;5.27;;;;;;;;;;5040205;28;93634;-45
2022/09/08 03:05:39;;;;;;;7.40;5.20;;;;;;;;;;5036949;27;92054;-45
2022/09/08 03:08:08;;;;;;;8.93;5.47;;;;;;;;;;5039152;28;95098;-45
2022/09/08 03:10:36;;;;;;;9.27;6.27;;;;;;;;;;5038364;28;94598;-45
2022/09/08 03:13:06;;;;;;;7.47;5.07;;;;;;;;;;5039200;28;91906;-45
2022/09/08 03:15:35;;;;;;;10.57;6.20;;;;;;;;;;5039673;28;92045;-45
2022/09/08 03:18:04;;;;;;;10.80;5.73;;;;;;;;;;5039463;28;94247;-45
2022/09/08 03:20:33;;;;;;;9.17;5.50;;;;;;;;;;5022064;28;93953;-45
2022/09/08 03:23:01;;;;;;;8.97;5.60;;;;;;;;;;5039411;28;92021;-46
2022/09/08 03:25:29;;;;;;;6.77;4.20;;;;;;;;;;5039295;28;91085;-45
2022/09/08 03:27:58;;;;;;;6.17;4.37;;;;;;;;;;5040101;28;94194;-45
2022/09/08 03:30:27;;;;;;;8.53;4.50;;;;;;;;;;5029842;28;92558;-46
2022/09/08 03:32:55;;;;;;;6.50;4.73;;;;;;;;;;5039216;28;92960;-45
2022/09/08 03:35:24;;;;;;;9.17;4.40;;;;;;;;;;5039106;28;92128;-45
2022/09/08 03:37:52;;;;;;;8.03;5.60;;;;;;;;;;5039428;28;94144;-46
2022/09/08 03:40:20;;;;;;;6.63;4.77;;;;;;;;;;5038888;28;93865;-46
2022/09/08 03:42:49;;;;;;;9.40;4.97;;;;;;;;;;5039487;28;92096;-45
2022/09/08 03:45:17;;;;;;;5.30;4.17;;;;;;;;;;5038422;28;91970;-45
2022/09/08 03:47:47;;;;;;;6.23;4.20;;;;;;;;;;5039137;28;94047;-46
2022/09/08 03:50:16;;;;;;;6.13;4.17;;;;;;;;;;5038921;28;93848;-45
2022/09/08 03:52:45;;;;;;;7.70;4.20;;;;;;;;;;5039041;28;91992;-46
2022/09/08 03:55:13;;;;;;;4.30;3.33;;;;;;;;;;5038896;28;92191;-45
2022/09/08 03:57:41;;;;;;;4.47;3.83;;;;;;;;;;5038138;28;94848;-45
2022/09/08 04:00:10;;;;;;;4.23;2.90;;;;;;;;;;5039047;28;94758;-45
2022/09/08 04:02:38;;;;;;;5.47;3.60;;;;;;;;;;5039398;28;92081;-45
2022/09/08 04:05:08;;;;;;;6.43;3.57;;;;;;;;;;5038830;28;92080;-45
2022/09/08 04:07:38;;;;;;;5.60;3.13;;;;;;;;;;5038096;28;94071;-45
2022/09/08 04:10:07;;;;;;;2.70;2.47;;;;;;;;;;5038212;28;92754;-45
2022/09/08 04:12:43;;;;;;;2.20;2.00;;;;;;;;;;5037843;27;92084;-45
2022/09/08 04:15:11;;;;;;;5.33;3.20;;;;;;;;;;5038349;28;91463;-45
2022/09/08 04:17:40;;;;;;;3.17;2.50;;;;;;;;;;5038541;28;94087;-45
2022/09/08 04:20:10;;;;;;;3.80;2.43;;;;;;;;;;5037850;28;94718;-45
2022/09/08 04:22:38;;;;;;;3.83;3.03;;;;;;;;;;5018735;28;93572;-45
2022/09/08 04:25:07;;;;;;;4.40;2.27;;;;;;;;;;5036370;28;91989;-45
2022/09/08 04:27:35;;;;;;;4.87;2.30;;;;;;;;;;5037230;28;93984;-47
2022/09/08 04:30:03;;;;;;;2.47;1.97;;;;;;;;;;5026801;28;94314;-45
2022/09/08 04:32:38;;;;;;;4.03;2.57;;;;;;;;;;5027865;28;92363;-45
2022/09/08 04:35:07;;;;;;;3.50;2.33;;;;;;;;;;5027924;28;92215;-45
2022/09/08 04:37:36;;;;;;;2.63;2.13;;;;;;;;;;5027130;27;94118;-46
2022/09/08 04:40:06;;;;;;;4.97;2.40;;;;;;;;;;5024373;28;94114;-51
2022/09/08 04:42:35;;;;;;;3.53;2.57;;;;;;;;;;5028126;28;92779;-51
2022/09/08 04:45:05;;;;;;;3.77;2.67;;;;;;;;;;5045241;27;92177;-50
2022/09/08 04:47:33;;;;;;;3.47;2.23;;;;;;;;;;5038091;28;94158;-51
2022/09/08 04:50:02;;;;;;;4.10;1.53;;;;;;;;;;5039908;27;94822;-52
2022/09/08 04:52:30;;;;;;;4.67;2.00;;;;;;;;;;5039200;27;92155;-51
2022/09/08 04:55:01;;;;;;;1.40;1.27;;;;;;;;;;5038319;28;92042;-50
2022/09/08 04:57:29;;;;;;;3.53;1.47;;;;;;;;;;5039227;28;94125;-50
2022/09/08 04:59:58;;;;;;;1.93;1.60;;;;;;;;;;5026448;28;94106;-50
2022/09/08 05:02:26;;;;;;;1.67;1.37;;;;;;;;;;5038653;28;92749;-52
2022/09/08 05:04:54;;;;;;;1.87;1.20;;;;;;;;;;5039928;28;91382;-50
2022/09/08 05:07:23;;;;;;;1.33;1.20;;;;;;;;;;5038780;27;92913;-50
2022/09/08 05:09:51;;;;;;;2.47;1.00;;;;;;;;;;5040111;28;93715;-53
2022/09/08 05:12:21;;;;;;;3.30;1.30;;;;;;;;;;5040927;28;92995;-50
2022/09/08 05:14:49;;;;;;;1.63;1.23;;;;;;;;;;5039805;28;91953;-50
2022/09/08 05:17:17;;;;;;;2.40;1.10;;;;;;;;;;5039879;28;93208;-50
2022/09/08 05:19:50;;;;;;;2.73;1.03;;;;;;;;;;5040062;28;93737;-50
2022/09/08 05:22:19;;;;;;;1.50;1.20;;;;;;;;;;5042797;27;92192;-50
2022/09/08 05:24:47;;;;;;;1.70;1.10;;;;;;;;;;5040788;28;92200;-49
2022/09/08 05:27:16;;;;;;;2.93;1.43;;;;;;;;;;5040875;28;94079;-50
2022/09/08 05:29:45;;;;;;;2.10;1.23;;;;;;;;;;5040209;28;93690;-50
2022/09/08 05:32:14;;;;;;;2.00;1.47;;;;;;;;;;5038804;27;92047;-50
2022/09/08 05:34:42;;;;;;;1.70;1.37;;;;;;;;;;5039125;28;93347;-50
2022/09/08 05:37:10;;;;;;;1.60;1.30;;;;;;;;;;5038624;28;95141;-51
2022/09/08 05:39:39;;;;;;;2.20;1.30;;;;;;;;;;5039926;27;94685;-50
2022/09/08 05:42:07;;;;;;;1.73;1.63;;;;;;;;;;5040633;28;92263;-51
2022/09/08 05:44:36;;;;;;;2.63;1.53;;;;;;;;;;5039800;28;92260;-50
2022/09/08 05:47:06;;;;;;;1.80;1.60;;;;;;;;;;5039523;28;93031;-50
2022/09/08 05:49:34;;;;;;;1.47;1.27;;;;;;;;;;5040085;27;93814;-50
2022/09/08 05:52:02;;;;;;;1.97;1.40;;;;;;;;;;5040326;27;93957;-49
2022/09/08 05:54:31;;;;;;;1.67;1.30;;;;;;;;;;5041272;28;91115;-50
2022/09/08 05:56:59;;;;;;;1.73;1.23;;;;;;;;;;5038843;27;94189;-50
2022/09/08 05:59:27;;;;;;;1.97;1.67;;;;;;;;;;5040272;28;93889;-50
2022/09/08 06:01:55;;;;;;;1.23;1.13;;;;;;;;;;5039610;28;92979;-51
2022/09/08 06:04:25;;;;;;;1.17;1.00;;;;;;;;;;5040302;28;92252;-50
2022/09/08 06:06:53;;;;;;;2.77;1.40;;;;;;;;;;5040657;28;94151;-50
2022/09/08 06:09:22;;;;;;;4.33;1.40;;;;;;;;;;5039899;28;93726;-50
2022/09/08 06:11:50;;;;;;;1.40;1.27;;;;;;;;;;5040576;27;92132;-50
2022/09/08 06:14:18;;;;;;;1.83;1.23;;;;;;;;;;5039661;28;92963;-50
2022/09/08 06:16:47;;;;;;;3.50;1.30;;;;;;;;;;5039103;28;94007;-50
2022/09/08 06:19:15;;;;;;;1.20;0.93;;;;;;;;;;5040124;28;92794;-50
2022/09/08 06:21:45;;;;;;;2.43;0.87;;;;;;;;;;5039806;28;92819;-50
2022/09/08 06:24:14;;;;;;;2.47;1.07;;;;;;;;;;5040468;28;92001;-50
2022/09/08 06:26:47;;;;;;;1.23;0.83;;;;;;;;;;5039116;28;94107;-51
2022/09/08 06:29:16;;;;;;;3.53;1.23;;;;;;;;;;5039758;28;94902;-50
2022/09/08 06:31:45;;;;;;;1.40;1.00;;;;;;;;;;5039986;27;91888;-50
2022/09/08 06:34:15;;;;;;;1.97;1.00;;;;;;;;;;5040363;28;91949;-51
2022/09/08 06:36:45;;;;;;;4.60;1.03;;;;;;;;;;5039724;28;94296;-50
2022/09/08 06:39:16;;;;;;;1.93;1.03;;;;;;;;;;5039976;28;93925;-50
2022/09/08 06:41:46;;;;;;;3.10;1.00;;;;;;;;;;5040149;28;92079;-50
2022/09/08 06:44:16;;;;;;;3.17;1.27;;;;;;;;;;5040432;28;91324;-50
2022/09/08 06:46:44;;;;;;;0.60;0.50;;;;;;;;;;5037532;28;94151;-52
2022/09/08 06:49:13;;;;;;;1.87;1.07;;;;;;;;;;5040088;28;93871;-51
2022/09/08 06:51:42;;;;;;;1.40;0.77;;;;;;;;;;5039162;28;93091;-51
2022/09/08 06:54:17;;;;;;;0.60;0.53;;;;;;;;;;5038267;28;92633;-51
2022/09/08 06:56:49;;;;;;;0.77;0.77;;;;;;;;;;5038490;27;94221;-51
2022/09/08 06:59:40;;;;;;;0.83;0.63;;;;;;;;;;5035962;28;93396;-51
2022/09/08 07:02:16;;;;;;;2.73;1.03;;;;;;;;;;5040540;27;92147;-52
2022/09/08 07:04:45;;;;;;;1.23;1.10;;;;;;;;;;5038940;28;92092;-51
2022/09/08 07:07:18;;;;;;;0.80;0.80;;;;;;;;;;5039797;28;94152;-51
2022/09/08 07:09:49;;;;;;;0.90;0.87;;;;;;;;;;5039453;28;93817;-51
2022/09/08 07:12:21;;;;;;;1.13;0.90;;;;;;;;;;5039150;28;92097;-51
2022/09/08 07:15:02;;;;;;;1.23;1.00;;;;;;;;;;5039484;28;92681;-51
2022/09/08 07:17:32;;;;;;;1.57;1.23;;;;;;;;;;5039942;28;95030;-51
2022/09/08 07:20:00;;;;;;;2.23;1.17;;;;;;;;;;5039954;28;94766;-52
2022/09/08 07:22:31;;;;;;;1.57;0.90;;;;;;;;;;5039570;28;92161;-52
2022/09/08 07:25:03;;;;;;;0.80;0.80;;;;;;;;;;5039246;28;92037;-51
2022/09/08 07:27:32;;;;;;;5.80;1.57;;;;;;;;;;5038461;28;93347;-51
2022/09/08 07:30:00;;;;;;;4.00;1.10;;;;;;;;;;5037751;28;93888;-50
2022/09/08 07:32:29;;;;;;;2.03;1.00;;;;;;;;;;5039052;28;93285;-51
2022/09/08 07:34:59;;;;;;;2.30;1.43;;;;;;;;;;5039250;27;91191;-51
2022/09/08 07:37:28;;;;;;;1.30;1.20;;;;;;;;;;5038500;28;94284;-51
2022/09/08 07:39:59;;;;;;;1.57;1.10;;;;;;;;;;5039154;28;94139;-51
2022/09/08 07:42:28;;;;;;;1.97;1.07;;;;;;;;;;5038819;28;92912;-50
2022/09/08 07:44:58;;;;;;;2.83;1.10;;;;;;;;;;5039333;28;91952;-51
2022/09/08 07:47:33;;;;;;;3.03;1.00;;;;;;;;;;5039748;28;94068;-51
2022/09/08 07:50:03;;;;;;;0.80;0.80;;;;;;;;;;5039485;28;92402;-51
2022/09/08 07:52:33;;;;;;;1.33;1.23;;;;;;;;;;5039747;28;92150;-50
2022/09/08 07:55:08;;;;;;;1.10;0.60;;;;;;;;;;5039392;28;92089;-51
2022/09/08 07:57:39;;;;;;;0.80;0.70;;;;;;;;;;5038809;28;94166;-51
2022/09/08 08:00:10;;;;;;;1.83;1.10;;;;;;;;;;5037978;28;93873;-51
2022/09/08 08:03:08;;;;;;;0.80;0.80;;;;;;;;;;5039175;28;91880;-51
2022/09/08 08:05:39;;;;;;;1.00;0.80;;;;;;;;;;5028599;27;92162;-51
2022/09/08 08:08:11;;;;;;;2.70;1.00;;;;;;;;;;5037685;27;93768;-51
2022/09/08 08:10:40;;;;;;;1.73;1.00;;;;;;;;;;5038806;28;93751;-50
2022/09/08 08:13:12;;;;;;;2.93;0.70;;;;;;;;;;5038952;27;92015;-51
2022/09/08 08:15:42;;;;;;;1.20;1.00;;;;;;;;;;5038018;28;92391;-50
2022/09/08 08:18:12;;;;;;;1.63;1.00;;;;;;;;;;5038579;27;94313;-50
2022/09/08 08:20:42;;;;;;;1.90;1.03;;;;;;;;;;5038244;28;92558;-50
2022/09/08 08:23:28;;;;;;;1.63;0.83;;;;;;;;;;5037363;28;92166;-50
2022/09/08 08:25:59;;;;;;;0.80;0.80;;;;;;;;;;5018997;28;91372;-50
2022/09/08 08:28:29;;;;;;;0.70;0.60;;;;;;;;;;5038728;28;94213;-50
2022/09/08 08:31:02;;;;;;;2.17;1.00;;;;;;;;;;5039174;28;93987;-50
2022/09/08 08:33:32;;;;;;;3.30;1.00;;;;;;;;;;5038454;28;93024;-49
2022/09/08 08:36:01;;;;;;;1.10;0.87;;;;;;;;;;5043015;27;93938;-50
2022/09/08 08:38:37;;;;;;;0.60;0.60;;;;;;;;;;5040503;27;93962;-50
2022/09/08 08:41:08;;;;;;;1.87;0.80;;;;;;;;;;5037943;28;92904;-50
2022/09/08 08:43:41;;;;;;;0.60;0.60;;;;;;;;;;5038719;28;91998;-50
2022/09/08 08:46:14;;;;;;;2.20;0.80;;;;;;;;;;5038784;28;92109;-50
2022/09/08 08:48:45;;;;;;;0.67;0.67;;;;;;;;;;5048639;27;94146;-50
2022/09/08 08:51:28;;;;;;;1.13;0.67;;;;;;;;;;5044805;27;93907;-50
2022/09/08 08:54:11;;;;;;;0.70;0.60;;;;;;;;;;5056116;27;92093;-50
2022/09/08 08:56:39;;;;;;;0.63;0.63;;;;;;;;;;5018424;28;92033;-50
2022/09/08 08:59:26;;;;;;;0.70;0.70;;;;;;;;;;5018009;27;95175;-50
2022/09/08 09:02:05;;;;;;;1.90;0.80;;;;;;;;;;5027952;27;94859;-50
2022/09/08 09:04:40;;;;;;;1.60;1.00;;;;;;;;;;5059261;27;91886;-50
2022/09/08 09:07:14;;;;;;;2.10;0.93;;;;;;;;;;5040927;27;92052;-50
2022/09/08 09:09:52;;;;;;;0.63;0.50;;;;;;;;;;5038093;28;92922;-50
2022/09/08 09:12:26;;;;;;;3.93;1.07;;;;;;;;;;5037940;28;93751;-50
2022/09/08 09:15:02;;;;;;;0.60;0.60;;;;;;;;;;5038036;28;92004;-50
2022/09/08 09:18:09;;;;;;;0.70;0.70;;;;;;;;;;5038062;27;91373;-50
2022/09/08 09:20:48;;;;;;;0.60;0.60;;;;;;;;;;5025637;28;93084;-51
2022/09/08 09:23:21;;;;;;;0.70;0.60;;;;;;;;;;5036408;28;94059;-50
2022/09/08 09:25:53;;;;;;;3.27;0.60;;;;;;;;;;5038483;28;92819;-50
2022/09/08 09:28:32;;;;;;;0.63;0.50;;;;;;;;;;5040534;27;91976;-50
2022/09/08 09:31:04;;;;;;;1.47;0.73;;;;;;;;;;5061362;27;94204;-51
2022/09/08 09:33:48;;;;;;;0.53;0.50;;;;;;;;;;5046609;27;92745;-49
2022/09/08 09:36:34;;;;;;;2.03;0.80;;;;;;;;;;5041578;27;92213;-49
2022/09/08 09:39:23;;;;;;;2.17;0.80;;;;;;;;;;5041599;28;92043;-49
2022/09/08 09:42:05;;;;;;;0.87;0.60;;;;;;;;;;5035342;28;93203;-49
2022/09/08 09:44:40;;;;;;;6.47;0.87;;;;;;;;;;5041449;28;92804;-49
2022/09/08 09:47:20;;;;;;;1.17;0.53;;;;;;;;;;5041256;28;92078;-51
2022/09/08 09:50:18;;;;;;;0.60;0.60;;;;;;;;;;5041049;27;92120;-50
2022/09/08 09:52:48;;;;;;;2.10;0.50;;;;;;;;;;4939339;28;95116;-50
2022/09/08 09:55:21;;;;;;;0.47;0.47;;;;;;;;;;5006723;27;94917;-50
2022/09/08 09:58:04;;;;;;;0.77;0.70;;;;;;;;;;5060993;27;91974;-50
2022/09/08 10:00:35;;;;;;;3.67;0.70;;;;;;;;;;5022677;28;92026;-50
2022/09/08 10:03:18;;;;;;;0.50;0.50;;;;;;;;;;5041803;27;94245;-50
2022/09/08 10:05:51;;;;;;;0.40;0.40;;;;;;;;;;5041319;28;93754;-50
2022/09/08 10:08:28;;;;;;;0.40;0.40;;;;;;;;;;5053607;27;92216;-50
2022/09/08 10:10:59;;;;;;;0.60;0.60;;;;;;;;;;5041878;27;91350;-50
2022/09/08 10:13:32;;;;;;;0.90;0.43;;;;;;;;;;5039233;28;93712;-50
2022/09/08 10:16:19;;;;;;;0.63;0.43;;;;;;;;;;5039453;28;93941;-50
2022/09/08 10:19:11;;;;;;;1.83;0.83;;;;;;;;;;5039864;28;92980;-50
2022/09/08 10:21:58;;;;;;;1.03;0.50;;;;;;;;;;5020810;28;92002;-50
2022/09/08 10:24:36;;;;;;;1.57;0.50;;;;;;;;;;5039263;28;93921;-50
2022/09/08 10:27:23;;;;;;;0.93;0.60;;;;;;;;;;5040004;27;93915;-50
2022/09/08 10:29:59;;;;;;;1.50;0.60;;;;;;;;;;5040267;28;91918;-48
2022/09/08 10:32:49;;;;;;;0.40;0.40;;;;;;;;;;5039709;28;92135;-50
2022/09/08 10:35:37;;;;;;;1.60;0.77;;;;;;;;;;5033961;28;94599;-50
2022/09/08 10:38:17;;;;;;;1.80;0.87;;;;;;;;;;5039120;28;93826;-50
2022/09/08 10:40:47;;;;;;;1.93;0.50;;;;;;;;;;5040017;28;91893;-50
2022/09/08 10:43:21;;;;;;;0.93;0.57;;;;;;;;;;5039473;28;92173;-50
2022/09/08 10:46:04;;;;;;;3.37;0.50;;;;;;;;;;5039353;28;95091;-50
2022/09/08 10:48:37;;;;;;;0.43;0.40;;;;;;;;;;5039761;28;93881;-50
2022/09/08 10:51:09;;;;;;;1.33;0.43;;;;;;;;;;5040864;28;92062;-51
2022/09/08 10:53:50;;;;;;;1.67;0.50;;;;;;;;;;5039938;28;92088;-50
2022/09/08 10:56:21;;;;;;;1.03;0.50;;;;;;;;;;5039792;28;93139;-50
2022/09/08 10:58:56;;;;;;;1.20;0.30;;;;;;;;;;5039733;28;93808;-50
2022/09/08 11:01:48;;;;;;;0.60;0.40;;;;;;;;;;5038272;28;92731;-50
2022/09/08 11:04:25;;;;;;;1.87;0.90;;;;;;;;;;5038980;28;91324;-50
2022/09/08 11:06:59;;;;;;;0.30;0.30;;;;;;;;;;5036855;28;94281;-50
2022/09/08 11:09:32;;;;;;;0.30;0.30;;;;;;;;;;5039096;28;93659;-50
2022/09/08 11:12:20;;;;;;;1.33;0.60;;;;;;;;;;5039268;28;92864;-50
2022/09/08 11:15:07;;;;;;;1.87;0.63;;;;;;;;;;5039850;28;92049;-50
2022/09/08 11:17:37;;;;;;;0.47;0.43;;;;;;;;;;5039033;28;93249;-50
2022/09/08 11:20:09;;;;;;;1.40;0.47;;;;;;;;;;5039578;28;93583;-51
2022/09/08 11:22:44;;;;;;;2.87;0.80;;;;;;;;;;5039596;28;92130;-50
2022/09/08 11:25:17;;;;;;;0.87;0.50;;;;;;;;;;5040123;28;92031;-50
2022/09/08 11:27:48;;;;;;;0.87;0.40;;;;;;;;;;5039824;28;97307;-51
2022/09/08 11:30:19;;;;;;;0.40;0.40;;;;;;;;;;5039569;28;94079;-51
2022/09/08 11:32:50;;;;;;;0.40;0.40;;;;;;;;;;5039876;28;92163;-50
2022/09/08 11:35:22;;;;;;;0.30;0.27;;;;;;;;;;5038080;28;93717;-51
2022/09/08 11:37:56;;;;;;;1.40;0.50;;;;;;;;;;5034221;28;94304;-50
2022/09/08 11:40:28;;;;;;;0.90;0.60;;;;;;;;;;5038831;28;94848;-51
2022/09/08 11:43:10;;;;;;;0.50;0.50;;;;;;;;;;5040249;28;92176;-50
2022/09/08 11:45:42;;;;;;;2.23;0.60;;;;;;;;;;5039401;28;91967;-50
2022/09/08 11:48:24;;;;;;;2.20;0.40;;;;;;;;;;5039394;28;94210;-51
2022/09/08 11:50:54;;;;;;;1.60;0.50;;;;;;;;;;5039256;27;93652;-50
2022/09/08 11:53:30;;;;;;;1.90;0.80;;;;;;;;;;5042655;27;92105;-51
2022/09/08 11:56:36;;;;;;;1.70;0.50;;;;;;;;;;5039519;28;91459;-51
2022/09/08 11:59:18;;;;;;;1.30;0.70;;;;;;;;;;5040771;27;92947;-50
2022/09/08 12:01:48;;;;;;;3.50;0.50;;;;;;;;;;5041494;27;92607;-51
2022/09/08 12:04:20;;;;;;;0.53;0.50;;;;;;;;;;5038534;28;93017;-50
2022/09/08 12:07:01;;;;;;;3.93;0.57;;;;;;;;;;5048993;27;92037;-50
2022/09/08 12:10:00;;;;;;;0.50;0.30;;;;;;;;;;5038462;28;94225;-50
2022/09/08 12:12:47;;;;;;;0.40;0.40;;;;;;;;;;4957017;28;93870;-51
2022/09/08 12:15:20;;;;;;;1.17;0.60;;;;;;;;;;5031053;28;92159;-51
2022/09/08 12:17:52;;;;;;;2.00;0.53;;;;;;;;;;5039888;27;92111;-50
2022/09/08 12:20:22;;;;;;;3.53;0.83;;;;;;;;;;5034564;27;94484;-50
2022/09/08 12:22:53;;;;;;;1.80;0.73;;;;;;;;;;5037994;28;94109;-50
2022/09/08 12:25:28;;;;;;;0.63;0.43;;;;;;;;;;5039183;27;91773;-51
2022/09/08 12:28:20;;;;;;;0.47;0.47;;;;;;;;;;5037794;28;92020;-51
2022/09/08 12:31:00;;;;;;;3.13;0.50;;;;;;;;;;5037703;27;95204;-51
2022/09/08 12:33:35;;;;;;;1.37;0.50;;;;;;;;;;5038652;28;94923;-51
2022/09/08 12:36:05;;;;;;;2.07;0.67;;;;;;;;;;5039010;28;91989;-51
2022/09/08 12:38:48;;;;;;;2.63;0.73;;;;;;;;;;5038518;28;92135;-51
2022/09/08 12:41:23;;;;;;;1.07;0.60;;;;;;;;;;5030240;27;94203;-50
2022/09/08 12:43:52;;;;;;;0.73;0.40;;;;;;;;;;5051970;27;92898;-50
2022/09/08 12:46:44;;;;;;;2.93;0.30;;;;;;;;;;5057399;27;92043;-49
2022/09/08 12:49:22;;;;;;;3.30;0.63;;;;;;;;;;5038554;28;91364;-49
2022/09/08 12:51:51;;;;;;;2.50;0.37;;;;;;;;;;5038264;28;94352;-50
2022/09/08 12:54:23;;;;;;;0.80;0.43;;;;;;;;;;5038624;28;93916;-50
2022/09/08 12:57:02;;;;;;;2.00;0.40;;;;;;;;;;5055207;27;93039;-50
2022/09/08 12:59:33;;;;;;;0.40;0.40;;;;;;;;;;5059248;27;92007;-50
2022/09/08 13:02:05;;;;;;;0.50;0.50;;;;;;;;;;5058480;27;93144;-50
2022/09/08 13:04:40;;;;;;;2.23;0.57;;;;;;;;;;5062246;27;93563;-50
2022/09/08 13:07:13;;;;;;;5.40;0.50;;;;;;;;;;5047397;27;92503;-50
2022/09/08 13:09:42;;;;;;;0.20;0.20;;;;;;;;;;5041797;28;92068;-50
2022/09/08 13:12:19;;;;;;;1.43;0.80;;;;;;;;;;5041126;28;93045;-50
2022/09/08 13:15:11;;;;;;;0.67;0.63;;;;;;;;;;5041291;28;92737;-49
2022/09/08 13:17:47;;;;;;;1.37;0.50;;;;;;;;;;5024928;27;92306;-50
2022/09/08 13:20:18;;;;;;;1.73;0.70;;;;;;;;;;5042034;28;91976;-50
2022/09/08 13:22:48;;;;;;;0.63;0.60;;;;;;;;;;5060362;27;95596;-50
2022/09/08 13:25:16;;;;;;;1.00;0.50;;;;;;;;;;5048008;27;93744;-50
2022/09/08 13:27:47;;;;;;;1.67;0.77;;;;;;;;;;5039992;27;93454;-50
2022/09/08 13:30:16;;;;;;;2.43;0.80;;;;;;;;;;5056423;27;91947;-51
2022/09/08 13:33:01;;;;;;;1.03;0.50;;;;;;;;;;5061641;27;94124;-50
2022/09/08 13:35:34;;;;;;;0.90;0.67;;;;;;;;;;5040139;28;93891;-49
2022/09/08 13:38:11;;;;;;;0.40;0.33;;;;;;;;;;5040007;28;92152;-49
2022/09/08 13:40:41;;;;;;;0.50;0.50;;;;;;;;;;5041691;28;91301;-50
2022/09/08 13:43:17;;;;;;;1.13;0.40;;;;;;;;;;5041040;28;94097;-49
2022/09/08 13:45:50;;;;;;;0.77;0.50;;;;;;;;;;5041282;28;92943;-49
2022/09/08 13:48:26;;;;;;;1.70;0.40;;;;;;;;;;5040897;28;93021;-49
2022/09/08 13:50:57;;;;;;;3.30;0.63;;;;;;;;;;5041601;28;92089;-49
2022/09/08 13:53:30;;;;;;;4.17;0.90;;;;;;;;;;5040843;28;92777;-50
2022/09/08 13:56:04;;;;;;;5.37;0.97;;;;;;;;;;5040507;28;93865;-49
2022/09/08 13:58:33;;;;;;;0.77;0.70;;;;;;;;;;5041405;28;92048;-49
2022/09/08 14:01:04;;;;;;;1.23;0.43;;;;;;;;;;5040878;28;92099;-49
2022/09/08 14:03:34;;;;;;;1.07;0.70;;;;;;;;;;5040223;28;94202;-49
2022/09/08 14:06:03;;;;;;;3.23;1.13;;;;;;;;;;5048952;27;93921;-50
2022/09/08 14:08:34;;;;;;;5.07;0.80;;;;;;;;;;5041238;28;92022;-49
2022/09/08 14:11:11;;;;;;;3.23;1.10;;;;;;;;;;5040391;28;92118;-51
2022/09/08 14:13:39;;;;;;;1.07;0.93;;;;;;;;;;5040422;27;94025;-51
2022/09/08 14:16:16;;;;;;;2.10;0.83;;;;;;;;;;5047527;27;93861;-50
2022/09/08 14:19:03;;;;;;;1.70;0.60;;;;;;;;;;5040421;28;91863;-49
2022/09/08 14:21:34;;;;;;;1.73;0.83;;;;;;;;;;5041422;27;92141;-50
2022/09/08 14:24:15;;;;;;;1.13;0.40;;;;;;;;;;5061225;27;94200;-50
2022/09/08 14:26:51;;;;;;;1.27;0.50;;;;;;;;;;5048249;27;93808;-50
2022/09/08 14:29:29;;;;;;;0.57;0.57;;;;;;;;;;5040824;27;92055;-50
2022/09/08 14:32:00;;;;;;;0.60;0.40;;;;;;;;;;5037871;28;91311;-50
2022/09/08 14:34:31;;;;;;;0.63;0.50;;;;;;;;;;5040065;28;94222;-50
2022/09/08 14:37:03;;;;;;;3.07;0.70;;;;;;;;;;5039112;28;93786;-49
2022/09/08 14:39:34;;;;;;;0.90;0.50;;;;;;;;;;5057437;27;92913;-50
2022/09/08 14:42:15;;;;;;;0.30;0.30;;;;;;;;;;5043093;27;91989;-50
2022/09/08 14:44:56;;;;;;;0.87;0.47;;;;;;;;;;5019772;28;93111;-50
2022/09/08 14:47:26;;;;;;;1.13;0.60;;;;;;;;;;5019782;28;92847;-50
2022/09/08 14:50:15;;;;;;;2.70;0.50;;;;;;;;;;5035116;27;92065;-50
2022/09/08 14:52:50;;;;;;;1.43;0.50;;;;;;;;;;5038887;28;92109;-50
2022/09/08 14:55:20;;;;;;;0.73;0.30;;;;;;;;;;5040394;27;94117;-50
2022/09/08 14:57:49;;;;;;;0.40;0.40;;;;;;;;;;5048269;27;93909;-50
2022/09/08 15:00:22;;;;;;;1.97;0.50;;;;;;;;;;5040821;28;92095;-50
2022/09/08 15:02:51;;;;;;;2.67;0.30;;;;;;;;;;5040262;28;92112;-50
2022/09/08 15:05:20;;;;;;;1.27;0.40;;;;;;;;;;5038611;28;95206;-50
2022/09/08 15:07:51;;;;;;;3.27;0.40;;;;;;;;;;5039538;28;94933;-50
2022/09/08 15:10:22;;;;;;;0.63;0.50;;;;;;;;;;5040256;27;92185;-49
2022/09/08 15:13:01;;;;;;;0.20;0.20;;;;;;;;;;5041782;27;92202;-50
2022/09/08 15:15:34;;;;;;;1.55;0.50;;;;;;;;;;5037009;27;94265;-50
2022/09/08 15:18:03;;;;;;;1.60;0.60;;;;;;;;;;5038707;27;93845;-50
2022/09/08 15:20:33;;;;;;;0.93;0.67;;;;;;;;;;5037721;28;92062;-50